createdAt,value
2019-03-01T00:02:04.024Z,93.40
2019-03-01T00:05:11.330Z,93.50
2019-03-01T00:08:10.345Z,93.60
2019-03-01T00:10:56.794Z,93.60
2019-03-01T00:14:11.251Z,93.60
2019-03-01T00:17:25.763Z,93.80
2019-03-01T00:20:47.049Z,94.00
2019-03-01T00:23:44.697Z,93.70
2019-03-01T00:26:34.427Z,93.70
2019-03-01T00:29:49.542Z,93.70
2019-03-01T00:32:57.881Z,93.70
2019-03-01T00:36:05.377Z,93.80
2019-03-01T00:39:29.633Z,93.90
2019-03-01T00:42:41.849Z,94.00
2019-03-01T00:45:09.317Z,93.90
2019-03-01T00:47:36.752Z,93.90
2019-03-01T00:50:04.875Z,94.10
2019-03-01T00:52:32.340Z,94.00
2019-03-01T00:54:59.773Z,93.80
2019-03-01T00:57:27.232Z,93.80
2019-03-01T00:59:54.661Z,94.10
2019-03-01T01:02:22.120Z,93.70
2019-03-01T01:04:49.602Z,93.70
2019-03-01T01:07:17.024Z,93.90
2019-03-01T01:09:44.463Z,93.90
2019-03-01T01:12:12.216Z,94.00
2019-03-01T01:14:39.650Z,94.00
2019-03-01T01:17:07.075Z,94.00
2019-03-01T01:19:34.528Z,94.00
2019-03-01T01:22:01.961Z,94.10
2019-03-01T01:24:29.393Z,94.10
2019-03-01T01:26:56.852Z,94.20
2019-03-01T01:29:24.284Z,94.30
2019-03-01T01:31:51.712Z,94.30
2019-03-01T01:34:19.169Z,94.20
2019-03-01T01:36:46.597Z,94.40
2019-03-01T01:39:14.051Z,94.60
2019-03-01T01:41:41.471Z,94.40
2019-03-01T01:44:08.899Z,94.30
2019-03-01T01:46:36.366Z,94.40
2019-03-01T01:49:03.799Z,94.20
2019-03-01T01:51:31.237Z,94.30
2019-03-01T01:53:58.685Z,94.50
2019-03-01T01:56:26.117Z,94.60
2019-03-01T01:58:53.543Z,94.70
2019-03-01T02:01:20.987Z,94.80
2019-03-01T02:03:48.531Z,94.70
2019-03-01T02:06:15.872Z,94.60
2019-03-01T02:08:43.300Z,94.80
2019-03-01T02:11:10.900Z,94.40
2019-03-01T02:13:38.333Z,94.70
2019-03-01T02:16:05.564Z,94.80
2019-03-01T02:18:32.488Z,94.70
2019-03-01T02:20:59.940Z,94.70
2019-03-01T02:23:27.364Z,94.70
2019-03-01T02:25:54.797Z,94.60
2019-03-01T02:28:22.314Z,95.30
2019-03-01T02:30:49.907Z,95.00
2019-03-01T02:33:17.335Z,94.90
2019-03-01T02:35:44.782Z,94.80
2019-03-01T02:38:12.220Z,94.60
2019-03-01T02:40:39.656Z,94.60
2019-03-01T02:43:07.102Z,94.60
2019-03-01T02:45:34.549Z,94.30
2019-03-01T02:48:01.997Z,94.50
2019-03-01T02:50:29.437Z,94.70
2019-03-01T02:52:56.853Z,94.60
2019-03-01T02:55:24.324Z,94.70
2019-03-01T02:57:51.752Z,94.80
2019-03-01T03:00:23.700Z,94.80
2019-03-01T03:02:51.151Z,94.80
2019-03-01T03:05:18.634Z,94.90
2019-03-01T03:07:50.661Z,94.80
2019-03-01T03:10:18.266Z,94.80
2019-03-01T03:12:46.273Z,94.60
2019-03-01T03:15:14.852Z,94.90
2019-03-01T03:17:42.289Z,94.90
2019-03-01T03:20:09.739Z,94.90
2019-03-01T03:22:37.200Z,95.00
2019-03-01T03:25:05.306Z,94.90
2019-03-01T03:27:32.741Z,95.10
2019-03-01T03:30:00.610Z,94.90
2019-03-01T03:32:28.238Z,94.90
2019-03-01T03:34:55.693Z,94.90
2019-03-01T03:37:23.113Z,95.10
2019-03-01T03:39:50.448Z,94.70
2019-03-01T03:42:17.957Z,94.60
2019-03-01T03:44:45.401Z,94.70
2019-03-01T03:47:12.837Z,94.40
2019-03-01T03:49:40.189Z,94.60
2019-03-01T03:52:07.614Z,94.40
2019-03-01T03:54:35.065Z,94.50
2019-03-01T03:57:02.522Z,94.50
2019-03-01T03:59:29.674Z,94.30
2019-03-01T04:01:56.371Z,94.30
2019-03-01T04:04:23.805Z,94.50
2019-03-01T04:06:51.245Z,94.50
2019-03-01T04:09:18.749Z,94.50
2019-03-01T04:11:46.165Z,94.30
2019-03-01T04:14:13.629Z,94.40
2019-03-01T04:16:41.050Z,94.20
2019-03-01T04:19:08.490Z,94.10
2019-03-01T04:21:35.909Z,94.00
2019-03-01T04:24:03.373Z,93.50
2019-03-01T04:26:30.800Z,93.10
2019-03-01T04:28:58.225Z,93.20
2019-03-01T04:31:25.679Z,93.30
2019-03-01T04:33:53.101Z,93.00
2019-03-01T04:36:20.532Z,93.30
2019-03-01T04:38:48.106Z,93.40
2019-03-01T04:41:15.554Z,93.50
2019-03-01T04:43:42.993Z,93.60
2019-03-01T04:46:10.432Z,93.50
2019-03-01T04:48:37.857Z,93.60
2019-03-01T04:51:05.315Z,93.40
2019-03-01T04:53:32.744Z,93.30
2019-03-01T04:56:00.179Z,93.20
2019-03-01T04:58:27.625Z,93.20
2019-03-01T05:00:55.056Z,92.90
2019-03-01T05:03:22.476Z,93.20
2019-03-01T05:05:49.932Z,93.10
2019-03-01T05:08:17.432Z,93.00
2019-03-01T05:10:44.593Z,93.10
2019-03-01T05:13:11.528Z,93.10
2019-03-01T05:15:38.956Z,92.50
2019-03-01T05:18:06.396Z,92.60
2019-03-01T05:20:33.879Z,92.60
2019-03-01T05:23:01.411Z,92.60
2019-03-01T05:25:29.042Z,93.00
2019-03-01T05:27:56.477Z,92.70
2019-03-01T05:30:23.905Z,92.70
2019-03-01T05:32:51.356Z,92.90
2019-03-01T05:35:18.808Z,93.20
2019-03-01T05:37:46.236Z,92.80
2019-03-01T05:40:13.900Z,92.60
2019-03-01T05:42:41.427Z,92.70
2019-03-01T05:45:11.983Z,92.90
2019-03-01T05:47:39.419Z,93.00
2019-03-01T05:50:07.496Z,92.80
2019-03-01T05:52:34.944Z,92.90
2019-03-01T05:55:02.378Z,92.90
2019-03-01T05:57:29.812Z,92.90
2019-03-01T05:59:57.274Z,92.80
2019-03-01T06:03:01.743Z,92.80
2019-03-01T06:05:39.577Z,93.00
2019-03-01T06:08:24.894Z,93.10
2019-03-01T06:11:24.756Z,93.10
2019-03-01T06:14:42.484Z,93.00
2019-03-01T06:17:46.312Z,92.90
2019-03-01T06:20:21.020Z,93.00
2019-03-01T06:23:05.471Z,93.20
2019-03-01T06:25:48.977Z,93.10
2019-03-01T06:28:32.752Z,93.10
2019-03-01T06:31:49.437Z,93.40
2019-03-01T06:34:46.112Z,93.00
2019-03-01T06:38:05.776Z,93.00
2019-03-01T06:41:30.748Z,92.90
2019-03-01T06:44:46.324Z,93.10
2019-03-01T06:47:41.398Z,93.10
2019-03-01T06:50:15.176Z,93.30
2019-03-01T06:52:42.349Z,93.30
2019-03-01T06:55:10.858Z,93.10
2019-03-01T06:57:37.781Z,93.20
2019-03-01T07:00:07.137Z,93.00
2019-03-01T07:02:40.123Z,93.00
2019-03-01T07:05:07.564Z,93.30
2019-03-01T07:07:35.024Z,93.60
2019-03-01T07:10:02.474Z,93.80
2019-03-01T07:12:29.913Z,93.60
2019-03-01T07:14:57.345Z,93.90
2019-03-01T07:17:24.834Z,93.80
2019-03-01T07:19:52.276Z,94.00
2019-03-01T07:22:19.772Z,94.10
2019-03-01T07:24:47.234Z,94.10
2019-03-01T07:27:14.681Z,94.10
2019-03-01T07:29:42.120Z,94.10
2019-03-01T07:32:09.601Z,94.00
2019-03-01T07:34:37.029Z,94.20
2019-03-01T07:37:04.481Z,94.30
2019-03-01T07:39:31.856Z,94.30
2019-03-01T07:41:59.284Z,94.30
2019-03-01T07:44:26.717Z,94.30
2019-03-01T07:46:54.363Z,94.30
2019-03-01T07:49:21.920Z,94.10
2019-03-01T07:51:49.357Z,94.20
2019-03-01T07:54:17.950Z,94.30
2019-03-01T07:56:45.589Z,94.50
2019-03-01T07:59:12.993Z,94.30
2019-03-01T08:01:40.428Z,94.20
2019-03-01T08:04:07.865Z,94.10
2019-03-01T08:06:35.337Z,93.90
2019-03-01T08:09:04.320Z,94.10
2019-03-01T08:11:32.446Z,94.20
2019-03-01T08:13:59.934Z,94.10
2019-03-01T08:16:27.244Z,94.20
2019-03-01T08:18:54.363Z,93.90
2019-03-01T08:21:21.328Z,94.10
2019-03-01T08:23:50.518Z,94.20
2019-03-01T08:26:18.029Z,94.20
2019-03-01T08:28:45.272Z,94.10
2019-03-01T08:31:12.694Z,94.20
2019-03-01T08:33:43.396Z,94.10
2019-03-01T08:36:09.253Z,94.10
2019-03-01T08:38:36.758Z,94.20
2019-03-01T08:41:04.193Z,94.20
2019-03-01T08:43:31.641Z,94.40
2019-03-01T08:45:59.083Z,94.40
2019-03-01T08:48:26.520Z,94.40
2019-03-01T08:50:53.952Z,94.20
2019-03-01T08:53:21.408Z,94.40
2019-03-01T08:55:48.837Z,94.20
2019-03-01T08:58:16.165Z,94.30
2019-03-01T09:00:43.636Z,94.50
2019-03-01T09:03:22.319Z,94.50
2019-03-01T09:05:47.372Z,94.30
2019-03-01T09:08:15.209Z,94.40
2019-03-01T09:10:42.678Z,94.80
2019-03-01T09:13:10.109Z,94.40
2019-03-01T09:15:37.546Z,94.40
2019-03-01T09:18:04.990Z,94.10
2019-03-01T09:20:37.004Z,94.30
2019-03-01T09:23:04.830Z,94.30
2019-03-01T09:25:30.928Z,94.20
2019-03-01T09:27:58.347Z,94.30
2019-03-01T09:30:25.780Z,93.60
2019-03-01T09:32:53.157Z,93.90
2019-03-01T09:35:43.967Z,93.80
2019-03-01T09:38:11.484Z,94.10
2019-03-01T09:40:38.889Z,94.00
2019-03-01T09:43:06.366Z,94.20
2019-03-01T09:45:36.415Z,94.00
2019-03-01T09:48:05.090Z,94.10
2019-03-01T09:50:34.470Z,94.30
2019-03-01T09:53:02.036Z,93.80
2019-03-01T09:55:29.505Z,93.50
2019-03-01T09:57:56.941Z,93.70
2019-03-01T10:00:24.392Z,93.70
2019-03-01T10:02:51.833Z,93.70
2019-03-01T10:05:19.320Z,93.80
2019-03-01T10:07:46.799Z,93.70
2019-03-01T10:10:18.406Z,93.50
2019-03-01T10:12:45.835Z,92.90
2019-03-01T10:15:13.286Z,93.40
2019-03-01T10:17:41.425Z,92.50
2019-03-01T10:20:10.959Z,92.80
2019-03-01T10:22:38.393Z,92.50
2019-03-01T10:25:06.978Z,92.80
2019-03-01T10:27:34.422Z,92.70
2019-03-01T10:30:01.881Z,92.30
2019-03-01T10:32:29.308Z,92.60
2019-03-01T10:34:56.753Z,92.40
2019-03-01T10:37:23.994Z,92.20
2019-03-01T10:39:55.427Z,92.20
2019-03-01T10:42:20.660Z,91.70
2019-03-01T10:44:48.242Z,91.90
2019-03-01T10:47:15.672Z,91.70
2019-03-01T10:49:43.092Z,91.40
2019-03-01T10:52:10.570Z,91.80
2019-03-01T10:54:37.970Z,91.90
2019-03-01T10:57:05.432Z,91.20
2019-03-01T10:59:32.863Z,91.00
2019-03-01T11:02:00.192Z,90.80
2019-03-01T11:04:27.616Z,91.50
2019-03-01T11:06:54.931Z,90.80
2019-03-01T11:09:22.380Z,90.60
2019-03-01T11:11:49.822Z,90.70
2019-03-01T11:14:17.260Z,90.80
2019-03-01T11:16:44.629Z,90.50
2019-03-01T11:19:12.066Z,90.50
2019-03-01T11:21:39.489Z,90.30
2019-03-01T11:24:06.916Z,90.40
2019-03-01T11:26:34.348Z,89.70
2019-03-01T11:29:01.788Z,89.60
2019-03-01T11:31:29.226Z,88.30
2019-03-01T11:33:56.672Z,90.00
2019-03-01T11:36:24.123Z,88.10
2019-03-01T11:38:51.577Z,88.90
2019-03-01T11:41:19.032Z,87.80
2019-03-01T11:43:46.457Z,87.90
2019-03-01T11:46:13.926Z,86.80
2019-03-01T11:48:41.361Z,87.20
2019-03-01T11:51:08.706Z,88.00
2019-03-01T11:53:36.064Z,87.90
2019-03-01T11:56:03.475Z,86.80
2019-03-01T11:58:30.896Z,87.80
2019-03-01T12:00:58.257Z,86.60
2019-03-01T12:03:25.701Z,86.70
2019-03-01T12:05:53.145Z,86.80
2019-03-01T12:08:20.497Z,85.70
2019-03-01T12:10:47.980Z,86.50
2019-03-01T12:13:15.436Z,85.50
2019-03-01T12:15:42.891Z,85.70
2019-03-01T12:18:10.255Z,86.50
2019-03-01T12:20:37.688Z,85.90
2019-03-01T12:23:05.120Z,86.40
2019-03-01T12:25:32.588Z,85.90
2019-03-01T12:28:00.072Z,85.80
2019-03-01T12:30:27.506Z,85.20
2019-03-01T12:32:54.969Z,85.20
2019-03-01T12:35:22.410Z,84.70
2019-03-01T12:37:49.747Z,85.70
2019-03-01T12:40:19.988Z,83.90
2019-03-01T12:42:47.416Z,85.50
2019-03-01T12:45:14.862Z,84.70
2019-03-01T12:47:42.333Z,86.40
2019-03-01T12:50:10.303Z,86.70
2019-03-01T12:52:37.733Z,86.80
2019-03-01T12:55:06.422Z,87.00
2019-03-01T12:57:33.827Z,87.00
2019-03-01T13:00:01.263Z,87.80
2019-03-01T13:02:28.701Z,88.50
2019-03-01T13:04:56.138Z,88.80
2019-03-01T13:07:23.576Z,88.90
2019-03-01T13:09:51.029Z,89.60
2019-03-01T13:12:18.499Z,90.00
2019-03-01T13:14:45.936Z,89.20
2019-03-01T13:17:13.348Z,89.30
2019-03-01T13:19:40.778Z,89.70
2019-03-01T13:22:08.225Z,90.00
2019-03-01T13:24:35.656Z,89.50
2019-03-01T13:27:03.098Z,88.60
2019-03-01T13:29:30.640Z,90.10
2019-03-01T13:31:58.177Z,90.00
2019-03-01T13:34:26.783Z,90.10
2019-03-01T13:36:54.387Z,90.80
2019-03-01T13:39:21.858Z,90.40
2019-03-01T13:41:49.337Z,90.90
2019-03-01T13:44:16.770Z,90.80
2019-03-01T13:46:44.227Z,90.30
2019-03-01T13:49:11.656Z,91.10
2019-03-01T13:51:39.073Z,91.10
2019-03-01T13:54:08.991Z,90.70
2019-03-01T13:56:35.970Z,90.70
2019-03-01T13:59:04.194Z,91.40
2019-03-01T14:01:31.661Z,91.20
2019-03-01T14:03:59.794Z,91.10
2019-03-01T14:06:28.253Z,90.90
2019-03-01T14:08:55.763Z,91.30
2019-03-01T14:11:23.551Z,91.20
2019-03-01T14:13:51.940Z,91.60
2019-03-01T14:16:20.424Z,91.40
2019-03-01T14:18:48.865Z,91.10
2019-03-01T14:21:16.323Z,90.90
2019-03-01T14:23:43.561Z,91.30
2019-03-01T14:26:10.455Z,91.10
2019-03-01T14:28:38.110Z,91.20
2019-03-01T14:31:07.402Z,91.00
2019-03-01T14:33:35.962Z,90.80
2019-03-01T14:36:03.854Z,90.60
2019-03-01T14:38:31.410Z,90.90
2019-03-01T14:40:59.740Z,90.90
2019-03-01T14:43:28.104Z,90.60
2019-03-01T14:45:55.540Z,90.90
2019-03-01T14:48:23.004Z,90.10
2019-03-01T14:50:50.481Z,90.40
2019-03-01T14:53:17.944Z,90.40
2019-03-01T14:55:48.880Z,89.90
2019-03-01T14:58:26.989Z,89.90
2019-03-01T15:01:23.333Z,89.80
2019-03-01T15:03:49.909Z,90.20
2019-03-01T15:06:19.149Z,87.90
2019-03-01T15:08:47.548Z,87.00
2019-03-01T15:11:16.800Z,86.20
2019-03-01T15:13:45.442Z,86.90
2019-03-01T15:16:12.897Z,86.70
2019-03-01T15:18:40.821Z,88.00
2019-03-01T15:21:09.081Z,85.60
2019-03-01T15:23:36.535Z,85.00
2019-03-01T15:26:04.160Z,83.40
2019-03-01T15:28:31.768Z,83.70
2019-03-01T15:30:59.228Z,83.10
2019-03-01T15:33:26.669Z,82.40
2019-03-01T15:35:54.152Z,83.10
2019-03-01T15:38:23.832Z,82.90
2019-03-01T15:40:50.729Z,83.00
2019-03-01T15:43:18.269Z,83.30
2019-03-01T15:45:45.704Z,83.10
2019-03-01T15:48:13.152Z,84.50
2019-03-01T15:50:40.581Z,84.20
2019-03-01T15:53:08.024Z,85.00
2019-03-01T15:55:35.517Z,85.40
2019-03-01T15:58:03.049Z,84.50
2019-03-01T16:00:30.576Z,85.00
2019-03-01T16:02:58.013Z,84.60
2019-03-01T16:05:25.472Z,84.70
2019-03-01T16:07:52.909Z,83.50
2019-03-01T16:10:20.358Z,84.30
2019-03-01T16:12:47.932Z,84.40
2019-03-01T16:15:15.397Z,85.10
2019-03-01T16:17:42.856Z,83.70
2019-03-01T16:20:11.852Z,82.60
2019-03-01T16:22:39.302Z,82.60
2019-03-01T16:25:08.277Z,83.20
2019-03-01T16:27:35.741Z,83.10
2019-03-01T16:30:03.504Z,83.00
2019-03-01T16:32:30.929Z,83.50
2019-03-01T16:34:58.175Z,82.90
2019-03-01T16:37:26.145Z,84.00
2019-03-01T16:39:56.095Z,84.30
2019-03-01T16:42:23.624Z,83.30
2019-03-01T16:44:51.072Z,82.80
2019-03-01T16:47:18.517Z,84.10
2019-03-01T16:49:46.005Z,84.10
2019-03-01T16:52:13.420Z,83.90
2019-03-01T16:54:40.843Z,84.30
2019-03-01T16:57:08.273Z,84.80
2019-03-01T16:59:35.929Z,85.10
2019-03-01T17:02:06.713Z,85.10
2019-03-01T17:04:32.512Z,85.10
2019-03-01T17:06:59.955Z,86.70
2019-03-01T17:09:27.382Z,85.80
2019-03-01T17:11:54.821Z,85.90
2019-03-01T17:14:22.284Z,86.20
2019-03-01T17:16:49.760Z,86.70
2019-03-01T17:19:17.207Z,85.90
2019-03-01T17:21:44.463Z,85.90
2019-03-01T17:24:12.257Z,84.80
2019-03-01T17:26:41.145Z,85.80
2019-03-01T17:29:08.590Z,86.70
2019-03-01T17:31:36.011Z,85.60
2019-03-01T17:34:04.498Z,86.80
2019-03-01T17:36:32.105Z,85.60
2019-03-01T17:38:59.777Z,85.30
2019-03-01T17:41:27.094Z,85.70
2019-03-01T17:43:54.732Z,86.00
2019-03-01T17:46:22.117Z,85.90
2019-03-01T17:48:49.593Z,85.10
2019-03-01T17:51:18.244Z,86.40
2019-03-01T17:53:47.240Z,85.50
2019-03-01T17:56:14.779Z,85.90
2019-03-01T17:58:42.257Z,86.70
2019-03-01T18:01:09.691Z,87.10
2019-03-01T18:03:37.176Z,86.80
2019-03-01T18:06:04.624Z,87.20
2019-03-01T18:08:32.063Z,86.30
2019-03-01T18:11:00.201Z,86.60
2019-03-01T18:13:27.724Z,86.80
2019-03-01T18:15:54.826Z,86.50
2019-03-01T18:18:22.276Z,87.50
2019-03-01T18:20:49.772Z,86.50
2019-03-01T18:23:17.196Z,87.70
2019-03-01T18:25:44.652Z,88.00
2019-03-01T18:28:12.126Z,87.30
2019-03-01T18:30:39.632Z,87.60
2019-03-01T18:33:07.132Z,88.30
2019-03-01T18:35:34.630Z,87.30
2019-03-01T18:38:02.083Z,87.50
2019-03-01T18:40:29.512Z,87.60
2019-03-01T18:42:56.956Z,87.60
2019-03-01T18:45:24.396Z,87.60
2019-03-01T18:47:51.740Z,87.40
2019-03-01T18:50:22.081Z,86.90
2019-03-01T18:52:52.742Z,86.90
2019-03-01T18:55:18.764Z,87.40
2019-03-01T18:57:46.245Z,88.40
2019-03-01T19:00:22.960Z,88.30
2019-03-01T19:02:50.583Z,87.80
2019-03-01T19:05:18.180Z,88.10
2019-03-01T19:07:45.598Z,87.60
2019-03-01T19:10:13.141Z,88.60
2019-03-01T19:12:40.595Z,88.90
2019-03-01T19:15:12.195Z,88.00
2019-03-01T19:17:40.657Z,88.60
2019-03-01T19:20:10.609Z,88.80
2019-03-01T19:22:38.057Z,87.80
2019-03-01T19:25:05.800Z,88.40
2019-03-01T19:27:33.734Z,87.30
2019-03-01T19:30:01.637Z,87.50
2019-03-01T19:32:29.066Z,87.80
2019-03-01T19:34:56.626Z,87.40
2019-03-01T19:37:24.060Z,88.30
2019-03-01T19:39:51.514Z,88.40
2019-03-01T19:42:19.005Z,88.00
2019-03-01T19:44:46.445Z,88.10
2019-03-01T19:47:13.912Z,88.00
2019-03-01T19:49:41.344Z,88.20
2019-03-01T19:52:09.393Z,88.00
2019-03-01T19:54:38.104Z,88.00
2019-03-01T19:57:06.087Z,88.30
2019-03-01T19:59:33.485Z,88.20
2019-03-01T20:02:00.833Z,87.60
2019-03-01T20:04:28.277Z,87.20
2019-03-01T20:06:55.889Z,87.80
2019-03-01T20:09:23.329Z,87.10
2019-03-01T20:11:50.764Z,87.60
2019-03-01T20:14:18.434Z,87.50
2019-03-01T20:16:45.864Z,88.10
2019-03-01T20:19:13.301Z,87.60
2019-03-01T20:21:41.334Z,87.10
2019-03-01T20:24:09.988Z,88.20
2019-03-01T20:26:37.496Z,87.30
2019-03-01T20:29:04.928Z,86.90
2019-03-01T20:31:32.356Z,88.10
2019-03-01T20:34:01.874Z,87.70
2019-03-01T20:36:29.064Z,87.80
2019-03-01T20:38:56.646Z,88.20
2019-03-01T20:41:24.199Z,88.90
2019-03-01T20:43:51.657Z,88.50
2019-03-01T20:46:19.252Z,89.20
2019-03-01T20:48:46.745Z,89.40
2019-03-01T20:51:14.225Z,88.00
2019-03-01T20:53:41.656Z,88.50
2019-03-01T20:56:09.875Z,89.30
2019-03-01T20:58:39.630Z,88.90
2019-03-01T21:01:07.619Z,88.50
2019-03-01T21:03:35.110Z,87.90
2019-03-01T21:06:04.623Z,87.80
2019-03-01T21:08:31.792Z,88.60
2019-03-01T21:10:59.252Z,88.40
2019-03-01T21:13:26.688Z,88.50
2019-03-01T21:15:54.124Z,88.20
2019-03-01T21:18:21.617Z,88.70
2019-03-01T21:20:50.478Z,88.50
2019-03-01T21:23:18.336Z,88.30
2019-03-01T21:25:45.775Z,89.20
2019-03-01T21:28:13.216Z,89.20
2019-03-01T21:30:40.684Z,88.90
2019-03-01T21:33:08.420Z,88.50
2019-03-01T21:35:39.426Z,88.60
2019-03-01T21:38:06.905Z,89.10
2019-03-01T21:40:34.653Z,88.50
2019-03-01T21:43:03.080Z,88.70
2019-03-01T21:45:30.536Z,89.10
2019-03-01T21:47:58.567Z,88.70
2019-03-01T21:50:25.982Z,88.70
2019-03-01T21:52:53.433Z,87.50
2019-03-01T21:55:20.902Z,89.00
2019-03-01T21:57:48.376Z,88.70
2019-03-01T22:00:20.661Z,89.10
2019-03-01T22:02:48.935Z,87.70
2019-03-01T22:05:17.387Z,88.20
2019-03-01T22:07:44.842Z,88.50
2019-03-01T22:10:12.476Z,88.80
2019-03-01T22:12:39.899Z,88.80
2019-03-01T22:15:10.345Z,88.50
2019-03-01T22:17:38.636Z,88.80
2019-03-01T22:20:08.891Z,88.50
2019-03-01T22:22:37.580Z,88.10
2019-03-01T22:25:05.512Z,88.30
2019-03-01T22:27:32.940Z,88.60
2019-03-01T22:30:00.405Z,88.90
2019-03-01T22:32:27.844Z,88.50
2019-03-01T22:34:55.181Z,88.90
2019-03-01T22:37:24.813Z,88.50
2019-03-01T22:39:52.257Z,88.30
2019-03-01T22:42:19.836Z,88.40
2019-03-01T22:44:47.321Z,88.50
2019-03-01T22:47:14.750Z,88.90
2019-03-01T22:49:41.809Z,88.40
2019-03-01T22:52:09.293Z,88.50
2019-03-01T22:54:36.730Z,88.90
2019-03-01T22:57:04.164Z,88.70
2019-03-01T22:59:31.620Z,89.10
2019-03-01T23:02:04.425Z,88.60
2019-03-01T23:04:32.269Z,88.70
2019-03-01T23:06:59.752Z,89.80
2019-03-01T23:09:27.189Z,88.80
2019-03-01T23:11:54.620Z,89.20
2019-03-01T23:14:22.084Z,88.80
2019-03-01T23:16:50.667Z,88.50
2019-03-01T23:19:18.816Z,88.70
2019-03-01T23:21:46.237Z,88.90
2019-03-01T23:24:13.680Z,88.90
2019-03-01T23:26:41.148Z,89.10
2019-03-01T23:29:08.585Z,89.20
2019-03-01T23:31:39.030Z,89.20
2019-03-01T23:34:07.041Z,89.20
2019-03-01T23:36:34.508Z,88.90
2019-03-01T23:39:02.072Z,89.10
2019-03-01T23:41:29.485Z,89.20
2019-03-01T23:43:56.914Z,88.70
2019-03-01T23:46:25.601Z,88.90
2019-03-01T23:48:53.603Z,89.10
2019-03-01T23:51:21.036Z,88.90
2019-03-01T23:53:48.513Z,89.20
2019-03-01T23:56:15.973Z,89.50
2019-03-01T23:58:43.430Z,89.10
